< < Back
Terminal Aerodrome Forecast


Current Version              Previous Versions:   1  2  3  4  5  6  7  8  9  

Terminal Aerodrome Forecast

247
FTUS44 KHUN 010520
TAFHSV
TAF
KHSV 010520Z 0106/0206 VRB03KT P6SM SKC
     FM011500 28006KT P6SM SCT060 SCT250=

Latest METAR

646
SAUS80 KWBC 020900 RRC
MTRHSV
METAR KHSV 020853Z AUTO 00000KT 10SM CLR 23/20 A3002 RMK AO2 SLP157
T02330200 55004


USA.gov is the U.S. government's official web portal to all federal, state and local government web resources and services.